Time;durP1;ratioP1;P1;durP2;ratioP2;P2;SDS_P1;SDS_P2;PMS_P1;PMS_P2;Temp;Humidity;BMP_temperature;BMP_pressure;BME280_temperature;BME280_humidity;BME280_pressure;Samples;Min_cycle;Max_cycle;Signal;HPM_P1;HPM_P2
2022/06/27 00:01:03;;;;;;;;;4.75;2.50;;;;;20.67;53.16;101326.28;2445518;28;46073;-83
2022/06/27 00:02:14;;;;;;;;;3.00;2.00;;;;;20.65;52.90;101322.88;2449569;28;45201;-82
2022/06/27 00:03:24;;;;;;;;;2.50;2.00;;;;;20.61;53.12;101326.72;2448304;27;45431;-85
2022/06/27 00:04:34;;;;;;;;;3.00;3.00;;;;;20.57;52.81;101326.03;2449116;27;45285;-85
2022/06/27 00:05:45;;;;;;;;;3.75;2.75;;;;;20.52;53.18;101323.69;2440592;28;46665;-86
2022/06/27 00:06:55;;;;;;;;;4.50;3.00;;;;;20.48;53.21;101332.00;2444344;28;45306;-86
2022/06/27 00:08:06;;;;;;;;;4.75;2.00;;;;;20.40;53.11;101333.34;2449218;28;47450;-85
2022/06/27 00:09:16;;;;;;;;;3.00;3.00;;;;;20.39;53.23;101339.66;2453158;27;45452;-87
2022/06/27 00:10:26;;;;;;;;;4.00;4.00;;;;;20.38;53.11;101335.28;2452501;27;45684;-87
2022/06/27 00:11:37;;;;;;;;;4.00;3.25;;;;;20.39;53.41;101345.00;2450063;28;44710;-83
2022/06/27 00:12:47;;;;;;;;;4.50;3.50;;;;;20.39;53.29;101339.66;2459996;27;47229;-84
2022/06/27 00:13:57;;;;;;;;;3.00;3.00;;;;;20.41;53.86;101351.09;2457359;27;45432;-84
2022/06/27 00:15:09;;;;;;;;;5.75;3.75;;;;;20.42;54.04;101349.28;2447532;27;47160;-84
2022/06/27 00:16:20;;;;;;;;;4.00;2.75;;;;;20.40;53.76;101346.72;2443252;27;45272;-84
2022/06/27 00:17:30;;;;;;;;;3.00;2.75;;;;;20.40;53.75;101345.84;2440184;28;46433;-84
2022/06/27 00:18:41;;;;;;;;;1.75;0.50;;;;;20.41;54.14;101347.56;2440091;28;45272;-85
2022/06/27 00:19:51;;;;;;;;;5.50;1.75;;;;;20.40;54.17;101346.72;2439486;28;47080;-84
2022/06/27 00:21:02;;;;;;;;;3.50;2.25;;;;;20.39;54.37;101349.50;2440235;28;44839;-84
2022/06/27 00:22:12;;;;;;;;;5.50;3.25;;;;;20.38;54.23;101348.63;2443153;28;46450;-85
2022/06/27 00:23:23;;;;;;;;;3.00;3.00;;;;;20.38;54.03;101337.09;2450502;27;44788;-84
2022/06/27 00:24:34;;;;;;;;;6.00;4.00;;;;;20.36;54.03;101342.53;2450632;27;45365;-83
2022/06/27 00:25:44;;;;;;;;;3.50;3.00;;;;;20.34;54.23;101342.66;2448237;27;45432;-83
2022/06/27 00:26:54;;;;;;;;;3.50;3.00;;;;;20.33;54.05;101345.41;2440485;28;45411;-82
2022/06/27 00:28:05;;;;;;;;;3.00;3.00;;;;;20.32;54.14;101336.53;2446429;28;45227;-83
2022/06/27 00:29:15;;;;;;;;;4.00;3.25;;;;;20.29;54.23;101342.09;2450771;27;46378;-82
2022/06/27 00:30:25;;;;;;;;;2.00;2.00;;;;;20.28;54.14;101342.16;2450890;27;44691;-82
2022/06/27 00:31:36;;;;;;;;;2.75;2.00;;;;;20.26;54.18;101333.41;2441385;27;45406;-82
2022/06/27 00:32:48;;;;;;;;;3.50;3.00;;;;;20.24;54.51;101331.72;2448230;28;45438;-82
2022/06/27 00:33:58;;;;;;;;;5.00;3.00;;;;;20.23;54.38;101335.31;2452087;28;47971;-82
2022/06/27 00:35:10;;;;;;;;;3.50;3.00;;;;;20.22;54.49;101338.94;2452814;27;44654;-82
2022/06/27 00:36:20;;;;;;;;;3.75;3.00;;;;;20.21;54.23;101337.25;2444793;27;45356;-82
2022/06/27 00:37:30;;;;;;;;;3.00;3.00;;;;;20.18;54.48;101334.75;2446144;28;45415;-83
2022/06/27 00:38:41;;;;;;;;;4.25;3.00;;;;;20.17;54.41;101337.53;2452538;28;45281;-85
2022/06/27 00:39:51;;;;;;;;;3.00;3.00;;;;;20.14;54.48;101333.25;2452432;27;45286;-84
2022/06/27 00:41:02;;;;;;;;;3.00;3.00;;;;;20.13;54.19;101339.53;2449440;28;46944;-85
2022/06/27 00:42:13;;;;;;;;;3.75;1.00;;;;;20.10;54.53;101334.38;2451088;28;45397;-85
2022/06/27 00:43:23;;;;;;;;;4.75;4.25;;;;;20.07;54.46;101332.78;2454326;27;47039;-85
2022/06/27 00:44:41;;;;;;;;;3.00;3.00;;;;;20.07;54.19;101335.44;2455804;27;45638;-85
2022/06/27 00:45:51;;;;;;;;;4.00;2.00;;;;;20.02;54.03;101327.72;2442275;28;45420;-85
2022/06/27 00:47:07;;;;;;;;;2.75;2.75;;;;;20.02;54.22;101330.41;2442425;28;45515;-85
2022/06/27 00:48:17;;;;;;;;;2.75;2.75;;;;;20.01;53.98;101330.47;2448133;28;45464;-85
2022/06/27 00:49:27;;;;;;;;;5.00;3.00;;;;;20.00;54.32;101334.13;2452206;27;45316;-85
2022/06/27 00:50:39;;;;;;;;;2.50;2.50;;;;;20.00;54.32;101340.28;2447696;27;46439;-85
2022/06/27 00:51:49;;;;;;;;;4.50;2.50;;;;;19.98;54.65;101339.53;2452526;27;45286;-85
2022/06/27 00:53:00;;;;;;;;;2.00;2.00;;;;;19.97;54.34;101328.97;2449073;27;46272;-85
2022/06/27 00:54:11;;;;;;;;;5.00;2.75;;;;;19.98;54.70;101333.34;2457675;27;45466;-85
2022/06/27 00:55:21;;;;;;;;;3.00;3.00;;;;;19.97;54.60;101334.31;2452596;27;47115;-85
2022/06/27 00:56:31;;;;;;;;;4.00;2.75;;;;;19.95;54.50;101334.38;2451048;28;44715;-85
2022/06/27 00:57:43;;;;;;;;;4.50;2.50;;;;;19.95;54.53;101336.22;2452027;28;45249;-85
2022/06/27 00:58:54;;;;;;;;;3.00;3.00;;;;;19.93;54.50;101330.13;2452293;28;45209;-85
2022/06/27 01:00:06;;;;;;;;;4.00;3.00;;;;;19.93;54.47;101338.97;2451224;28;47012;-85
2022/06/27 01:01:16;;;;;;;;;2.50;2.50;;;;;19.92;54.46;101337.28;2451912;28;45227;-86
2022/06/27 01:02:27;;;;;;;;;2.75;2.25;;;;;19.93;54.98;101338.97;2451397;28;48380;-85
2022/06/27 01:03:38;;;;;;;;;2.75;2.50;;;;;19.94;54.35;101337.16;2454556;27;45339;-84
2022/06/27 01:04:48;;;;;;;;;3.00;3.00;;;;;19.92;54.38;101336.41;2458792;27;45254;-85
2022/06/27 01:05:58;;;;;;;;;3.75;2.00;;;;;19.90;54.77;101334.69;2447166;27;44666;-85
2022/06/27 01:07:10;;;;;;;;;3.00;3.00;;;;;19.90;54.74;101333.84;2449126;28;46244;-85
2022/06/27 01:08:23;;;;;;;;;4.00;3.00;;;;;19.89;55.17;101337.47;2449978;28;45342;-85
2022/06/27 01:09:34;;;;;;;;;3.25;2.50;;;;;19.88;54.68;101333.06;2451609;27;46176;-85
2022/06/27 01:10:46;;;;;;;;;2.75;2.75;;;;;19.88;54.58;101341.06;2449571;27;45247;-86
2022/06/27 01:11:56;;;;;;;;;2.75;2.00;;;;;19.86;54.34;101334.97;2441746;28;48467;-84
2022/06/27 01:13:06;;;;;;;;;4.00;4.00;;;;;19.86;54.82;101337.66;2454279;27;45376;-84
2022/06/27 01:14:18;;;;;;;;;2.25;2.25;;;;;19.87;55.47;101339.38;2458653;27;45466;-84
2022/06/27 01:15:28;;;;;;;;;5.00;3.00;;;;;19.85;54.83;101336.78;2451571;27;45211;-84
2022/06/27 01:16:39;;;;;;;;;6.00;2.50;;;;;19.86;55.03;101342.97;2446630;28;46419;-85
2022/06/27 01:17:50;;;;;;;;;4.25;3.00;;;;;19.86;54.22;101342.97;2457982;27;45195;-85
2022/06/27 01:19:02;;;;;;;;;3.25;3.25;;;;;19.85;54.77;101347.44;2458740;27;45509;-85
2022/06/27 01:20:12;;;;;;;;;3.00;1.25;;;;;19.86;54.88;101348.31;2450526;28;45415;-84
2022/06/27 01:21:24;;;;;;;;;2.75;1.75;;;;;19.86;54.75;101351.84;2451643;28;45304;-84
2022/06/27 01:22:35;;;;;;;;;2.00;2.00;;;;;19.85;54.68;101351.97;2461357;27;45376;-84
2022/06/27 01:23:45;;;;;;;;;2.00;2.00;;;;;19.86;54.57;101358.97;2456015;27;45461;-84
2022/06/27 01:24:56;;;;;;;;;4.00;2.50;;;;;19.87;54.98;101363.38;2441666;28;45245;-85
2022/06/27 01:26:06;;;;;;;;;4.25;4.25;;;;;19.87;54.80;101366.03;2447644;28;47178;-82
2022/06/27 01:27:17;;;;;;;;;2.00;2.00;;;;;19.87;54.60;101366.03;2450379;28;45301;-82
2022/06/27 01:28:27;;;;;;;;;5.25;3.25;;;;;19.86;54.83;101367.84;2452205;27;45542;-82
2022/06/27 01:29:38;;;;;;;;;3.75;2.25;;;;;19.86;54.84;101372.31;2451966;27;45358;-84
2022/06/27 01:30:48;;;;;;;;;3.00;3.00;;;;;19.87;55.08;101372.25;2451203;27;45421;-83
2022/06/27 01:31:59;;;;;;;;;4.75;2.25;;;;;19.87;54.89;101364.25;2452288;27;44659;-84
2022/06/27 01:33:09;;;;;;;;;3.00;3.00;;;;;19.87;55.00;101366.91;2451779;28;46109;-85
2022/06/27 01:34:20;;;;;;;;;4.50;3.00;;;;;19.89;54.88;101369.47;2444433;28;45242;-83
2022/06/27 01:35:30;;;;;;;;;3.00;3.00;;;;;19.90;54.96;101379.19;2442034;28;45695;-82
2022/06/27 01:36:44;;;;;;;;;2.75;2.50;;;;;19.90;55.00;101380.03;2442557;28;45208;-82
2022/06/27 01:37:54;;;;;;;;;2.00;2.00;;;;;19.92;54.56;101379.97;2451407;28;45500;-83
2022/06/27 01:39:05;;;;;;;;;3.00;3.00;;;;;19.92;54.63;101369.28;2452245;27;45362;-83
2022/06/27 01:40:15;;;;;;;;;3.75;2.50;;;;;19.92;54.77;101369.28;2460157;27;47252;-82
2022/06/27 01:41:26;;;;;;;;;1.75;1.75;;;;;19.90;54.85;101364.03;2457714;27;45287;-83
2022/06/27 01:42:37;;;;;;;;;1.50;1.50;;;;;19.90;54.30;101368.53;2451946;28;45649;-82
2022/06/27 01:43:48;;;;;;;;;3.00;3.00;;;;;19.91;55.15;101370.22;2450629;28;44639;-81
2022/06/27 01:44:59;;;;;;;;;4.00;2.50;;;;;19.90;54.45;101372.03;2446634;28;45519;-81
2022/06/27 01:46:09;;;;;;;;;3.50;3.00;;;;;19.90;55.02;101363.19;2445535;28;45219;-81
2022/06/27 01:47:20;;;;;;;;;2.50;2.50;;;;;19.89;54.78;101359.66;2443174;28;45550;-81
2022/06/27 01:48:31;;;;;;;;;3.25;2.25;;;;;19.89;54.39;101362.34;2461272;27;45271;-82
2022/06/27 01:49:42;;;;;;;;;3.50;2.00;;;;;19.90;54.14;101373.88;2454516;27;46616;-82
2022/06/27 01:50:57;;;;;;;;;3.00;3.00;;;;;19.89;54.49;101364.13;2442463;28;45172;-83
2022/06/27 01:52:12;;;;;;;;;4.25;3.00;;;;;19.88;55.11;101368.59;2450720;28;45288;-83
2022/06/27 01:53:25;;;;;;;;;4.00;3.00;;;;;19.89;54.71;101358.81;2449755;27;45492;-83
2022/06/27 01:54:36;;;;;;;;;4.75;3.00;;;;;19.92;54.33;101357.75;2451741;28;46258;-85
2022/06/27 01:55:46;;;;;;;;;2.00;2.00;;;;;19.89;54.56;101351.66;2449129;27;44725;-86
2022/06/27 01:56:57;;;;;;;;;3.00;3.00;;;;;19.91;54.18;101356.88;2451131;28;47124;-86
2022/06/27 01:58:08;;;;;;;;;2.25;2.25;;;;;19.90;54.29;101357.84;2456988;27;44841;-86
2022/06/27 01:59:21;;;;;;;;;3.00;2.75;;;;;19.91;54.70;101348.88;2451044;28;45915;-86
2022/06/27 02:00:32;;;;;;;;;2.00;2.00;;;;;19.91;54.39;101346.22;2443838;28;45411;-87
2022/06/27 02:01:43;;;;;;;;;2.50;2.00;;;;;19.91;54.95;101346.22;2446392;28;45458;-87
2022/06/27 02:02:54;;;;;;;;;2.00;2.00;;;;;19.90;54.83;101345.34;2442345;28;45235;-86
2022/06/27 02:04:05;;;;;;;;;4.00;2.75;;;;;19.92;55.11;101355.09;2448590;28;45623;-84
2022/06/27 02:05:16;;;;;;;;;5.25;4.00;;;;;19.92;54.92;101347.94;2452061;27;44784;-85
2022/06/27 02:06:29;;;;;;;;;4.00;3.00;;;;;19.91;54.86;101340.88;2450222;28;48193;-85
2022/06/27 02:07:42;;;;;;;;;3.50;2.50;;;;;19.91;54.85;101346.22;2449320;28;45240;-84
2022/06/27 02:08:53;;;;;;;;;2.00;2.00;;;;;19.93;55.06;101348.81;2449144;28;46405;-84
2022/06/27 02:10:04;;;;;;;;;2.00;2.00;;;;;19.91;54.88;101343.56;2448875;28;45275;-85
2022/06/27 02:11:15;;;;;;;;;4.00;3.00;;;;;19.92;54.92;101347.94;2441542;28;46421;-84
2022/06/27 02:12:28;;;;;;;;;4.25;3.25;;;;;19.90;54.56;101347.19;2449849;28;45381;-84
2022/06/27 02:13:38;;;;;;;;;3.25;3.25;;;;;19.91;54.70;101346.22;2451779;28;46429;-84
2022/06/27 02:14:53;;;;;;;;;3.50;3.00;;;;;19.90;54.71;101340.03;2450521;27;46019;-83
2022/06/27 02:16:08;;;;;;;;;2.00;2.00;;;;;19.89;54.35;101334.78;2451831;28;45333;-82
2022/06/27 02:17:19;;;;;;;;;3.00;2.00;;;;;19.92;54.66;101347.09;2455690;27;45497;-82
2022/06/27 02:18:30;;;;;;;;;4.00;2.00;;;;;19.90;54.96;101328.53;2447848;28;45515;-82
2022/06/27 02:19:41;;;;;;;;;2.75;2.75;;;;;19.90;54.84;101324.00;2448321;28;44755;-82
2022/06/27 02:20:51;;;;;;;;;4.00;2.50;;;;;19.91;54.84;101335.56;2451620;27;45254;-82
2022/06/27 02:22:02;;;;;;;;;4.00;3.00;;;;;19.91;54.93;101335.56;2451090;27;44736;-81
2022/06/27 02:23:12;;;;;;;;;3.25;3.25;;;;;19.90;54.75;101339.19;2451717;28;46201;-81
2022/06/27 02:24:22;;;;;;;;;3.00;3.00;;;;;19.90;54.56;101340.03;2451906;27;45221;-82
2022/06/27 02:25:33;;;;;;;;;3.25;3.25;;;;;19.90;54.71;101341.84;2451600;27;45238;-82
2022/06/27 02:26:47;;;;;;;;;3.00;3.00;;;;;19.91;54.62;101351.56;2450956;28;45284;-82
2022/06/27 02:27:58;;;;;;;;;2.50;2.00;;;;;19.92;54.90;101350.63;2450824;28;45457;-82
2022/06/27 02:29:08;;;;;;;;;1.25;1.00;;;;;19.92;54.86;101353.28;2451957;28;45295;-83
2022/06/27 02:30:20;;;;;;;;;2.50;2.50;;;;;19.93;54.86;101349.63;2451432;27;45401;-83
2022/06/27 02:31:31;;;;;;;;;1.50;1.50;;;;;19.94;54.69;101346.03;2441989;28;46064;-83
2022/06/27 02:32:42;;;;;;;;;2.00;2.00;;;;;19.94;55.04;101348.69;2443458;28;45565;-84
2022/06/27 02:33:53;;;;;;;;;3.00;3.00;;;;;19.96;54.80;101349.44;2451189;28;45218;-83
2022/06/27 02:35:05;;;;;;;;;3.75;2.50;;;;;19.95;54.91;101350.41;2450985;28;48482;-82
2022/06/27 02:36:19;;;;;;;;;3.00;3.00;;;;;19.97;54.78;101351.19;2450446;27;44744;-82
2022/06/27 02:37:30;;;;;;;;;3.00;1.25;;;;;19.95;54.49;101347.72;2450717;27;46456;-82
2022/06/27 02:38:43;;;;;;;;;3.50;3.50;;;;;19.98;54.72;101341.34;2450197;28;45184;-82
2022/06/27 02:39:55;;;;;;;;;3.75;1.50;;;;;19.97;54.73;101348.50;2451314;27;45460;-82
2022/06/27 02:41:09;;;;;;;;;3.00;2.00;;;;;19.99;54.25;101351.06;2449228;27;45421;-82
2022/06/27 02:42:22;;;;;;;;;4.00;3.00;;;;;19.99;54.45;101354.59;2446045;28;45479;-83
2022/06/27 02:43:35;;;;;;;;;2.25;2.25;;;;;20.00;54.42;101355.47;2451726;27;45175;-82
2022/06/27 02:44:50;;;;;;;;;2.75;2.75;;;;;20.02;54.77;101362.41;2447375;27;45395;-82
2022/06/27 02:46:02;;;;;;;;;2.25;1.75;;;;;20.04;54.75;101356.13;2441693;28;45218;-84
2022/06/27 02:47:13;;;;;;;;;4.25;3.75;;;;;20.05;54.74;101360.50;2451699;27;47084;-85
2022/06/27 02:48:26;;;;;;;;;3.50;3.00;;;;;20.07;54.64;101361.25;2449663;27;45341;-88
2022/06/27 02:49:36;;;;;;;;;2.25;2.00;;;;;20.08;54.71;101358.47;2445389;28;47188;-86
2022/06/27 02:50:51;;;;;;;;;4.50;3.00;;;;;20.08;54.63;101362.97;2449097;27;45326;-85
2022/06/27 02:52:27;;;;;;;;;2.00;1.50;;;;;20.08;54.56;101363.81;2459137;27;47259;-85
2022/06/27 02:53:59;;;;;;;;;4.00;2.50;;;;;20.10;54.65;101371.75;2441764;28;44735;-84
2022/06/27 02:55:13;;;;;;;;;1.50;1.50;;;;;20.08;54.77;101361.16;2440793;28;47196;-84
2022/06/27 02:56:26;;;;;;;;;2.00;2.00;;;;;20.08;54.80;101362.97;2447052;28;45402;-85
2022/06/27 02:57:48;;;;;;;;;3.25;3.25;;;;;20.09;54.95;101367.34;2440769;28;47226;-84
2022/06/27 02:59:01;;;;;;;;;4.25;3.50;;;;;20.12;54.70;101368.03;2448869;28;45643;-83
2022/06/27 03:00:13;;;;;;;;;5.50;3.00;;;;;20.15;54.80;101358.97;2450408;28;48109;-83
2022/06/27 03:01:28;;;;;;;;;2.00;2.00;;;;;20.17;54.66;101354.41;2443832;28;45538;-86
2022/06/27 03:02:41;;;;;;;;;3.25;3.25;;;;;20.19;54.42;101356.97;2450314;28;47241;-83
2022/06/27 03:03:53;;;;;;;;;2.00;2.00;;;;;20.18;54.77;101350.78;2451097;28;44754;-82
2022/06/27 03:05:04;;;;;;;;;2.50;2.50;;;;;20.20;54.61;101354.19;2451511;28;45330;-82
2022/06/27 03:06:14;;;;;;;;;2.25;2.25;;;;;20.19;54.46;101351.63;2450554;27;44803;-82
2022/06/27 03:07:25;;;;;;;;;2.25;2.00;;;;;20.20;54.47;101346.19;2448614;28;45584;-82
2022/06/27 03:08:43;;;;;;;;;3.00;3.00;;;;;20.21;54.49;101355.94;2444971;27;45232;-85
2022/06/27 03:09:53;;;;;;;;;4.00;2.25;;;;;20.23;54.41;101354.00;2445959;27;46249;-85
2022/06/27 03:11:04;;;;;;;;;3.00;3.00;;;;;20.23;54.38;101354.00;2441538;28;44900;-85
2022/06/27 03:12:15;;;;;;;;;2.50;2.00;;;;;20.24;53.97;101353.06;2439693;28;46830;-84
2022/06/27 03:13:26;;;;;;;;;3.50;2.75;;;;;20.24;53.94;101350.41;2441877;28;45539;-83
2022/06/27 03:14:36;;;;;;;;;2.25;2.25;;;;;20.26;54.51;101354.75;2441062;28;45475;-83
2022/06/27 03:15:47;;;;;;;;;2.50;2.50;;;;;20.26;55.06;101346.75;2438804;27;45471;-84
2022/06/27 03:16:57;;;;;;;;;3.00;2.50;;;;;20.26;54.49;101342.28;2439968;28;46127;-84
2022/06/27 03:18:12;;;;;;;;;3.50;3.50;;;;;20.26;54.11;101344.09;2440372;28;46048;-84
2022/06/27 03:19:22;;;;;;;;;2.25;2.00;;;;;20.27;54.40;101341.34;2441040;28;47208;-84
2022/06/27 03:20:33;;;;;;;;;2.75;2.75;;;;;20.27;54.76;101336.00;2443858;27;45547;-85
2022/06/27 03:21:43;;;;;;;;;2.75;2.00;;;;;20.28;54.63;101336.84;2438919;28;46587;-83
2022/06/27 03:22:54;;;;;;;;;2.00;2.00;;;;;20.27;54.89;101335.13;2441083;28;47300;-84
2022/06/27 03:24:04;;;;;;;;;3.00;2.00;;;;;20.27;54.68;101346.69;2438711;28;45437;-84
2022/06/27 03:25:15;;;;;;;;;2.00;2.00;;;;;20.27;54.51;101345.81;2442174;27;45357;-83
2022/06/27 03:26:25;;;;;;;;;3.25;2.00;;;;;20.26;54.24;101338.75;2443650;28;45455;-84
2022/06/27 03:27:35;;;;;;;;;2.00;2.00;;;;;20.26;54.48;101339.59;2442101;28;45377;-84
2022/06/27 03:28:46;;;;;;;;;1.00;1.00;;;;;20.27;54.43;101340.47;2450029;27;47127;-84
2022/06/27 03:29:56;;;;;;;;;3.00;3.00;;;;;20.25;54.39;101337.88;2456102;27;45294;-85
2022/06/27 03:31:08;;;;;;;;;2.50;2.00;;;;;20.26;54.23;101333.41;2460553;27;45365;-83
2022/06/27 03:32:19;;;;;;;;;1.75;1.75;;;;;20.23;54.11;101321.97;2458304;27;44633;-84
2022/06/27 03:33:29;;;;;;;;;3.00;3.00;;;;;20.22;54.12;101328.25;2450326;28;45321;-83
2022/06/27 03:34:39;;;;;;;;;2.25;2.25;;;;;20.22;54.41;101324.75;2456485;27;45227;-85
2022/06/27 03:35:50;;;;;;;;;3.00;3.00;;;;;20.21;54.17;101326.56;2454342;27;45256;-84
2022/06/27 03:37:00;;;;;;;;;3.00;2.75;;;;;20.19;54.47;101331.16;2441640;28;45427;-84
2022/06/27 03:38:12;;;;;;;;;4.00;4.00;;;;;20.20;54.76;101334.69;2449511;28;47161;-84
2022/06/27 03:39:23;;;;;;;;;2.00;2.00;;;;;20.18;54.50;101332.09;2452864;27;45221;-83
2022/06/27 03:40:34;;;;;;;;;3.00;3.00;;;;;20.17;54.46;101330.41;2455524;27;45515;-84
2022/06/27 03:41:44;;;;;;;;;2.75;2.75;;;;;20.16;54.64;101339.34;2443788;28;45480;-84
2022/06/27 03:42:55;;;;;;;;;2.25;2.25;;;;;20.15;54.51;101332.28;2450446;28;47274;-85
2022/06/27 03:44:11;;;;;;;;;2.00;2.00;;;;;20.14;54.92;101333.25;2450667;28;44747;-85
2022/06/27 03:45:21;;;;;;;;;3.75;3.75;;;;;20.12;54.97;101329.84;2450942;27;45390;-86
2022/06/27 03:46:32;;;;;;;;;3.00;2.75;;;;;20.11;54.78;101336.13;2443313;27;45514;-86
2022/06/27 03:47:50;;;;;;;;;3.00;3.00;;;;;20.09;54.78;101338.00;2450347;28;47192;-86
2022/06/27 03:50:30;;;;;;;;;6.00;4.00;;;;;20.10;54.53;101345.06;2440839;28;45751;-85
2022/06/27 03:51:40;;;;;;;;;4.00;3.00;;;;;20.08;55.04;101352.28;2441648;28;45250;-86
2022/06/27 03:52:51;;;;;;;;;2.00;2.00;;;;;20.09;55.29;101349.53;2440360;28;46008;-85
2022/06/27 03:54:01;;;;;;;;;3.00;2.75;;;;;20.08;55.13;101353.16;2440242;28;45438;-85
2022/06/27 03:55:12;;;;;;;;;4.25;3.00;;;;;20.10;55.08;101353.06;2446372;28;45242;-85
2022/06/27 03:56:22;;;;;;;;;6.25;3.00;;;;;20.08;55.29;101347.81;2443245;28;44873;-85
2022/06/27 03:57:34;;;;;;;;;2.75;2.75;;;;;20.08;55.30;101352.28;2447397;27;45397;-84
2022/06/27 03:58:45;;;;;;;;;2.00;2.00;;;;;20.08;55.30;101349.63;2446251;27;46978;-84
2022/06/27 03:59:55;;;;;;;;;2.75;2.00;;;;;20.08;55.27;101352.28;2440093;28;45289;-84
2022/06/27 04:01:06;;;;;;;;;4.00;2.00;;;;;20.07;55.27;101347.91;2440698;28;45469;-83
2022/06/27 04:02:16;;;;;;;;;3.75;2.75;;;;;20.07;55.38;101347.91;2439702;28;45498;-84
2022/06/27 04:03:26;;;;;;;;;3.00;3.00;;;;;20.07;55.26;101343.44;2440423;27;45492;-83
2022/06/27 04:04:37;;;;;;;;;2.50;2.50;;;;;20.07;55.32;101354.13;2446808;28;45298;-83
2022/06/27 04:05:47;;;;;;;;;3.00;3.00;;;;;20.08;55.25;101349.63;2449413;28;44849;-84
2022/06/27 04:06:58;;;;;;;;;2.25;2.25;;;;;20.06;55.92;101352.41;2448941;28;45584;-83
2022/06/27 04:08:08;;;;;;;;;4.00;3.25;;;;;20.07;55.48;101351.44;2443729;27;45264;-84
2022/06/27 04:09:18;;;;;;;;;3.00;3.00;;;;;20.06;55.87;101348.84;2440716;28;46683;-83
2022/06/27 04:10:29;;;;;;;;;1.25;1.25;;;;;20.08;55.53;101344.28;2444361;27;44878;-84
2022/06/27 04:11:39;;;;;;;;;6.75;4.00;;;;;20.08;55.45;101357.63;2449576;27;47039;-84
2022/06/27 04:12:50;;;;;;;;;4.00;3.00;;;;;20.05;55.23;101358.66;2450469;28;45200;-83
2022/06/27 04:14:00;;;;;;;;;3.25;3.25;;;;;20.05;55.46;101365.84;2450815;27;46185;-84
2022/06/27 04:15:11;;;;;;;;;5.75;3.00;;;;;20.06;55.50;101367.53;2450925;27;45274;-84
2022/06/27 04:16:22;;;;;;;;;4.00;2.75;;;;;20.04;55.40;101362.31;2448964;27;47244;-84
2022/06/27 04:17:32;;;;;;;;;3.25;3.00;;;;;20.05;55.56;101365.84;2440587;28;45236;-84
2022/06/27 04:18:42;;;;;;;;;6.00;4.00;;;;;20.06;55.58;101370.22;2448295;28;45698;-87
2022/06/27 04:19:53;;;;;;;;;0.00;0.00;;;;;20.06;55.19;101373.75;2451134;27;45199;-87
2022/06/27 04:21:03;;;;;;;;;3.25;3.00;;;;;20.08;55.52;101376.28;2450540;27;45331;-86
2022/06/27 04:22:14;;;;;;;;;4.50;2.25;;;;;20.09;55.39;101375.34;2449375;28;44776;-87
2022/06/27 04:23:24;;;;;;;;;4.00;3.75;;;;;20.10;55.26;101385.09;2443957;28;48407;-88
2022/06/27 04:24:35;;;;;;;;;2.00;2.00;;;;;20.12;55.67;101381.38;2442993;28;44816;-88
2022/06/27 04:25:46;;;;;;;;;3.25;2.25;;;;;20.15;55.26;101387.50;2453026;27;47176;-88
2022/06/27 04:26:57;;;;;;;;;1.50;1.50;;;;;20.16;55.26;101376.72;2440477;27;46186;-86
2022/06/27 04:28:08;;;;;;;;;3.00;3.00;;;;;20.18;55.11;101385.47;2450100;28;48376;-89
2022/06/27 04:29:18;;;;;;;;;2.75;2.50;;;;;20.19;55.24;101392.53;2443111;28;45263;-88
2022/06/27 04:30:29;;;;;;;;;2.50;2.50;;;;;20.21;55.63;101397.75;2449511;28;46244;-83
2022/06/27 04:31:39;;;;;;;;;2.75;2.00;;;;;20.22;55.04;101392.31;2441129;27;45421;-82
2022/06/27 04:32:50;;;;;;;;;2.75;2.00;;;;;20.25;55.60;101399.25;2446836;28;45235;-82
2022/06/27 04:34:00;;;;;;;;;4.00;3.00;;;;;20.29;55.03;101402.63;2450954;28;44539;-82
2022/06/27 04:35:11;;;;;;;;;7.50;4.00;;;;;20.29;54.93;101403.47;2450850;27;45505;-82
2022/06/27 04:36:23;;;;;;;;;3.25;2.00;;;;;20.31;54.89;101408.69;2449086;28;45155;-82
2022/06/27 04:37:33;;;;;;;;;2.75;2.75;;;;;20.31;54.49;101412.25;2450841;27;45191;-82
2022/06/27 04:38:44;;;;;;;;;3.00;2.00;;;;;20.32;54.43;101423.78;2450767;27;44727;-82
2022/06/27 04:39:54;;;;;;;;;2.50;2.50;;;;;20.32;54.57;101419.28;2450587;27;46145;-82
2022/06/27 04:41:05;;;;;;;;;3.00;2.00;;;;;20.31;54.68;101424.72;2445631;27;45287;-82
2022/06/27 04:42:15;;;;;;;;;4.00;3.00;;;;;20.33;54.76;101425.47;2442862;28;45621;-82
2022/06/27 04:43:26;;;;;;;;;5.25;4.00;;;;;20.32;54.77;101424.59;2450892;27;45254;-82
2022/06/27 04:44:42;;;;;;;;;4.00;4.00;;;;;20.34;54.58;101429.88;2450384;28;46093;-84
2022/06/27 04:45:54;;;;;;;;;5.00;3.00;;;;;20.34;55.50;101428.06;2450861;27;45382;-88
2022/06/27 04:47:07;;;;;;;;;3.00;2.75;;;;;20.34;54.99;101421.88;2449964;28;48126;-89
2022/06/27 04:48:17;;;;;;;;;2.75;2.25;;;;;20.33;55.25;101414.78;2450201;28;45189;-88
2022/06/27 04:49:28;;;;;;;;;3.25;3.25;;;;;20.33;55.06;101410.31;2458134;27;48134;-88
2022/06/27 04:50:40;;;;;;;;;2.00;2.00;;;;;20.34;54.73;101403.19;2451050;27;45576;-87
2022/06/27 04:51:51;;;;;;;;;3.25;2.00;;;;;20.32;54.57;101403.25;2442365;28;48128;-87
2022/06/27 04:53:01;;;;;;;;;3.00;3.00;;;;;20.31;54.85;101401.56;2444664;27;44781;-87
2022/06/27 04:54:12;;;;;;;;;4.00;4.00;;;;;20.31;54.78;101398.03;2452661;27;48203;-87
2022/06/27 04:55:22;;;;;;;;;3.00;3.00;;;;;20.28;54.77;101401.75;2450552;27;44584;-86
2022/06/27 04:56:33;;;;;;;;;5.50;4.00;;;;;20.27;55.21;101397.38;2449044;28;46940;-87
2022/06/27 04:57:46;;;;;;;;;4.00;3.00;;;;;20.28;55.16;101408.91;2441607;27;45354;-87
2022/06/27 04:58:56;;;;;;;;;4.25;3.00;;;;;20.27;54.93;101407.19;2447295;27;47378;-87
2022/06/27 05:00:09;;;;;;;;;4.75;3.00;;;;;20.24;55.41;101395.78;2449708;28;45263;-87
2022/06/27 05:01:20;;;;;;;;;4.50;3.00;;;;;20.25;55.47;101396.59;2449158;28;46747;-87
2022/06/27 05:02:30;;;;;;;;;2.00;0.50;;;;;20.24;55.12;101390.44;2458173;27;45313;-87
2022/06/27 05:03:41;;;;;;;;;4.75;3.25;;;;;20.24;55.15;101385.09;2444319;27;46344;-86
2022/06/27 05:04:51;;;;;;;;;7.00;3.00;;;;;20.22;55.53;101376.31;2441528;28;44698;-83
2022/06/27 05:06:02;;;;;;;;;5.00;3.00;;;;;20.23;55.19;101367.34;2447352;28;45252;-82
2022/06/27 05:07:12;;;;;;;;;4.25;4.00;;;;;20.23;55.46;101372.69;2447485;28;45271;-82
2022/06/27 05:08:22;;;;;;;;;3.75;3.00;;;;;20.23;55.30;101364.69;2450489;27;46296;-82
2022/06/27 05:09:32;;;;;;;;;2.00;2.00;;;;;20.22;55.42;101368.28;2459840;27;45250;-83
2022/06/27 05:10:43;;;;;;;;;4.00;3.00;;;;;20.21;55.55;101374.59;2448677;28;48265;-83
2022/06/27 05:11:54;;;;;;;;;2.00;2.00;;;;;20.22;55.15;101375.47;2450327;28;44706;-84
2022/06/27 05:13:04;;;;;;;;;3.00;3.00;;;;;20.22;55.37;101380.81;2450459;28;46137;-83
2022/06/27 05:14:15;;;;;;;;;5.00;4.00;;;;;20.20;55.55;101386.22;2450427;27;45243;-84
2022/06/27 05:15:25;;;;;;;;;3.25;3.00;;;;;20.22;55.54;101399.50;2450275;27;46320;-84
2022/06/27 05:16:36;;;;;;;;;5.25;4.50;;;;;20.23;55.69;101404.72;2449793;27;45401;-84
2022/06/27 05:17:46;;;;;;;;;4.00;3.25;;;;;20.23;55.58;101401.19;2450136;27;45325;-84
2022/06/27 05:18:57;;;;;;;;;3.50;2.00;;;;;20.22;55.53;101400.31;2452476;27;44843;-84
2022/06/27 05:25:28;;;;;;;;;3.00;3.00;;;;;20.36;55.52;101382.56;2652660;22;46587;-87
2022/06/27 05:26:39;;;;;;;;;7.00;4.00;;;;;20.39;55.75;101386.88;2428320;28;45417;-82
2022/06/27 05:27:49;;;;;;;;;4.50;4.50;;;;;20.38;55.52;101371.78;2431644;28;47015;-83
2022/06/27 05:29:01;;;;;;;;;5.00;4.00;;;;;20.41;55.59;101374.28;2425375;28;45123;-83
2022/06/27 05:30:13;;;;;;;;;5.25;4.25;;;;;20.41;55.60;101377.81;2433177;28;47715;-82
2022/06/27 05:31:24;;;;;;;;;4.25;3.50;;;;;20.42;55.20;101390.16;2426156;28;45433;-86
2022/06/27 05:32:34;;;;;;;;;4.50;4.50;;;;;20.42;55.39;101400.03;2424104;28;46186;-87
2022/06/27 05:33:44;;;;;;;;;2.00;0.50;;;;;20.41;55.27;101412.50;2436768;28;44837;-86
2022/06/27 05:34:55;;;;;;;;;2.00;2.00;;;;;20.44;55.10;101411.44;2431750;28;46188;-86
2022/06/27 05:36:06;;;;;;;;;5.00;4.75;;;;;20.46;55.59;101394.38;2439231;28;45350;-87
2022/06/27 05:37:16;;;;;;;;;2.75;2.75;;;;;20.51;55.15;101398.56;2437297;28;45586;-85
2022/06/27 05:38:27;;;;;;;;;4.00;3.25;;;;;20.54;54.90;101395.69;2432423;28;45232;-86